sensor_id;sensor_type;location;lat;lon;timestamp;pressure;altitude;pressure_sealevel;temperature;humidity
47330;BME280;33060;50.178;7.570;2023-03-01T00:01:08;98072.47;;;-1.76;70.79
47330;BME280;33060;50.178;7.570;2023-03-01T00:03:35;98064.72;;;-1.78;70.87
47330;BME280;33060;50.178;7.570;2023-03-01T00:06:03;98064.78;;;-1.88;71.48
47330;BME280;33060;50.178;7.570;2023-03-01T00:08:30;98056.16;;;-1.90;71.94
47330;BME280;33060;50.178;7.570;2023-03-01T00:11:12;98055.25;;;-1.85;71.76
47330;BME280;33060;50.178;7.570;2023-03-01T00:13:40;98056.19;;;-1.95;71.83
47330;BME280;33060;50.178;7.570;2023-03-01T00:16:10;98057.94;;;-1.98;72.70
47330;BME280;33060;50.178;7.570;2023-03-01T00:18:37;98060.50;;;-2.00;72.52
47330;BME280;33060;50.178;7.570;2023-03-01T00:21:04;98055.34;;;-2.05;71.89
47330;BME280;33060;50.178;7.570;2023-03-01T00:23:33;98059.66;;;-2.02;72.46
47330;BME280;33060;50.178;7.570;2023-03-01T00:26:00;98053.63;;;-2.00;72.02
47330;BME280;33060;50.178;7.570;2023-03-01T00:28:27;98061.34;;;-1.96;72.52
47330;BME280;33060;50.178;7.570;2023-03-01T00:30:53;98057.94;;;-2.03;72.70
47330;BME280;33060;50.178;7.570;2023-03-01T00:33:20;98057.13;;;-2.20;73.49
47330;BME280;33060;50.178;7.570;2023-03-01T00:35:47;98055.41;;;-2.18;73.57
47330;BME280;33060;50.178;7.570;2023-03-01T00:38:13;98042.50;;;-2.28;73.81
47330;BME280;33060;50.178;7.570;2023-03-01T00:40:40;98045.13;;;-2.34;74.41
47330;BME280;33060;50.178;7.570;2023-03-01T00:43:07;98045.09;;;-2.23;74.01
47330;BME280;33060;50.178;7.570;2023-03-01T00:45:34;98039.94;;;-2.23;74.24
47330;BME280;33060;50.178;7.570;2023-03-01T00:48:01;98039.91;;;-2.18;74.03
47330;BME280;33060;50.178;7.570;2023-03-01T00:50:28;98033.88;;;-2.20;73.57
47330;BME280;33060;50.178;7.570;2023-03-01T00:52:55;98037.34;;;-2.29;73.96
47330;BME280;33060;50.178;7.570;2023-03-01T00:55:22;98038.22;;;-2.25;74.26
47330;BME280;33060;50.178;7.570;2023-03-01T00:57:49;98030.44;;;-2.27;73.93
47330;BME280;33060;50.178;7.570;2023-03-01T01:00:16;98033.97;;;-2.42;74.60
47330;BME280;33060;50.178;7.570;2023-03-01T01:02:43;98034.84;;;-2.50;75.33
47330;BME280;33060;50.178;7.570;2023-03-01T01:05:10;98023.66;;;-2.57;74.99
47330;BME280;33060;50.178;7.570;2023-03-01T01:07:37;98021.16;;;-2.77;75.55
47330;BME280;33060;50.178;7.570;2023-03-01T01:10:04;98020.28;;;-2.91;75.52
47330;BME280;33060;50.178;7.570;2023-03-01T01:12:32;98019.44;;;-2.99;76.57
47330;BME280;33060;50.178;7.570;2023-03-01T01:14:59;98015.97;;;-2.83;76.31
47330;BME280;33060;50.178;7.570;2023-03-01T01:17:25;98015.13;;;-2.77;75.77
47330;BME280;33060;50.178;7.570;2023-03-01T01:19:52;98011.69;;;-2.82;76.71
47330;BME280;33060;50.178;7.570;2023-03-01T01:22:19;97999.66;;;-2.87;75.70
47330;BME280;33060;50.178;7.570;2023-03-01T01:24:45;97999.66;;;-2.99;77.10
47330;BME280;33060;50.178;7.570;2023-03-01T01:27:12;97990.19;;;-2.94;76.74
47330;BME280;33060;50.178;7.570;2023-03-01T01:29:38;97996.22;;;-2.93;76.52
47330;BME280;33060;50.178;7.570;2023-03-01T01:32:05;97991.94;;;-3.03;77.66
47330;BME280;33060;50.178;7.570;2023-03-01T01:34:32;97988.47;;;-3.08;77.86
47330;BME280;33060;50.178;7.570;2023-03-01T01:36:58;97993.66;;;-3.18;77.39
47330;BME280;33060;50.178;7.570;2023-03-01T01:39:29;97989.34;;;-3.32;77.86
47330;BME280;33060;50.178;7.570;2023-03-01T01:41:56;97998.81;;;-3.31;77.81
47330;BME280;33060;50.178;7.570;2023-03-01T01:44:27;97998.84;;;-3.30;77.21
47330;BME280;33060;50.178;7.570;2023-03-01T01:47:04;97993.69;;;-3.30;78.70
47330;BME280;33060;50.178;7.570;2023-03-01T01:49:40;97991.09;;;-3.28;78.60
47330;BME280;33060;50.178;7.570;2023-03-01T01:54:46;97985.06;;;-3.18;77.93
47330;BME280;33060;50.178;7.570;2023-03-01T01:57:19;97985.00;;;-2.83;77.05
47330;BME280;33060;50.178;7.570;2023-03-01T01:59:52;97981.56;;;-2.83;76.77
47330;BME280;33060;50.178;7.570;2023-03-01T02:02:21;97970.38;;;-2.78;77.03
47330;BME280;33060;50.178;7.570;2023-03-01T02:04:49;97972.06;;;-2.71;77.27
47330;BME280;33060;50.178;7.570;2023-03-01T02:07:23;97976.41;;;-2.87;76.91
47330;BME280;33060;50.178;7.570;2023-03-01T02:09:52;97974.72;;;-3.00;77.76
47330;BME280;33060;50.178;7.570;2023-03-01T02:12:23;97975.56;;;-3.07;77.98
47330;BME280;33060;50.178;7.570;2023-03-01T02:14:50;97970.44;;;-3.04;78.08
47330;BME280;33060;50.178;7.570;2023-03-01T02:17:18;97973.03;;;-3.11;78.93
47330;BME280;33060;50.178;7.570;2023-03-01T02:22:36;97964.34;;;-2.83;77.18
47330;BME280;33060;50.178;7.570;2023-03-01T02:25:07;97968.63;;;-2.68;77.28
47330;BME280;33060;50.178;7.570;2023-03-01T02:30:27;97972.03;;;-2.57;77.05
47330;BME280;33060;50.178;7.570;2023-03-01T02:32:56;97971.13;;;-2.54;76.00
47330;BME280;33060;50.178;7.570;2023-03-01T02:35:32;97968.56;;;-2.50;75.95
47330;BME280;33060;50.178;7.570;2023-03-01T02:38:01;97969.38;;;-2.46;76.26
47330;BME280;33060;50.178;7.570;2023-03-01T02:40:29;97971.97;;;-2.45;76.09
47330;BME280;33060;50.178;7.570;2023-03-01T02:42:58;97968.53;;;-2.41;75.52
47330;BME280;33060;50.178;7.570;2023-03-01T02:45:26;97971.13;;;-2.42;76.17
47330;BME280;33060;50.178;7.570;2023-03-01T02:47:54;97971.94;;;-2.43;75.58
47330;BME280;33060;50.178;7.570;2023-03-01T02:55:48;97948.72;;;-2.40;75.63
47330;BME280;33060;50.178;7.570;2023-03-01T02:58:15;97948.72;;;-2.40;75.63
47330;BME280;33060;50.178;7.570;2023-03-01T03:00:43;97946.97;;;-2.38;75.88
47330;BME280;33060;50.178;7.570;2023-03-01T03:03:20;97939.19;;;-2.31;75.50
47330;BME280;33060;50.178;7.570;2023-03-01T03:05:47;97928.88;;;-2.34;75.71
47330;BME280;33060;50.178;7.570;2023-03-01T03:08:15;97927.16;;;-2.36;75.66
47330;BME280;33060;50.178;7.570;2023-03-01T03:10:50;97915.09;;;-2.36;75.35
47330;BME280;33060;50.178;7.570;2023-03-01T03:13:17;97918.56;;;-2.40;75.40
47330;BME280;33060;50.178;7.570;2023-03-01T03:15:45;97919.41;;;-2.39;75.74
47330;BME280;33060;50.178;7.570;2023-03-01T03:18:15;97910.81;;;-2.40;75.69
47330;BME280;33060;50.178;7.570;2023-03-01T03:20:42;97914.25;;;-2.44;75.80
47330;BME280;33060;50.178;7.570;2023-03-01T03:23:10;97915.16;;;-2.48;76.06
47330;BME280;33060;50.178;7.570;2023-03-01T03:25:38;97908.28;;;-2.52;75.99
47330;BME280;33060;50.178;7.570;2023-03-01T03:28:06;97910.00;;;-2.54;76.23
47330;BME280;33060;50.178;7.570;2023-03-01T03:30:38;97908.31;;;-2.57;76.41
47330;BME280;33060;50.178;7.570;2023-03-01T03:33:06;97906.59;;;-2.59;76.12
47330;BME280;33060;50.178;7.570;2023-03-01T03:35:39;97914.34;;;-2.59;76.16
47330;BME280;33060;50.178;7.570;2023-03-01T03:38:08;97907.47;;;-2.62;76.32
47330;BME280;33060;50.178;7.570;2023-03-01T03:40:59;97902.28;;;-2.56;76.18
47330;BME280;33060;50.178;7.570;2023-03-01T03:43:31;97897.13;;;-2.59;76.67
47330;BME280;33060;50.178;7.570;2023-03-01T03:45:58;97899.72;;;-2.65;76.95
47330;BME280;33060;50.178;7.570;2023-03-01T03:48:25;97893.72;;;-2.61;76.39
47330;BME280;33060;50.178;7.570;2023-03-01T03:50:54;97889.41;;;-2.63;76.58
47330;BME280;33060;50.178;7.570;2023-03-01T03:53:24;97891.16;;;-2.73;77.16
47330;BME280;33060;50.178;7.570;2023-03-01T03:55:51;97886.88;;;-2.74;77.02
47330;BME280;33060;50.178;7.570;2023-03-01T03:58:20;97881.69;;;-2.71;77.24
47330;BME280;33060;50.178;7.570;2023-03-01T04:00:49;97876.53;;;-2.72;77.19
47330;BME280;33060;50.178;7.570;2023-03-01T04:03:17;97873.13;;;-2.76;77.45
47330;BME280;33060;50.178;7.570;2023-03-01T04:05:46;97863.63;;;-2.75;77.52
47330;BME280;33060;50.178;7.570;2023-03-01T04:08:13;97859.34;;;-2.75;77.28
47330;BME280;33060;50.178;7.570;2023-03-01T04:10:43;97861.00;;;-2.66;76.74
47330;BME280;33060;50.178;7.570;2023-03-01T04:13:12;97857.56;;;-2.67;76.76
47330;BME280;33060;50.178;7.570;2023-03-01T04:15:40;97861.88;;;-2.70;77.52
47330;BME280;33060;50.178;7.570;2023-03-01T04:18:14;97857.56;;;-2.70;77.38
47330;BME280;33060;50.178;7.570;2023-03-01T04:20:41;97861.88;;;-2.72;76.82
47330;BME280;33060;50.178;7.570;2023-03-01T04:23:16;97862.78;;;-2.76;77.72
47330;BME280;33060;50.178;7.570;2023-03-01T04:25:56;97861.06;;;-2.80;77.11
47330;BME280;33060;50.178;7.570;2023-03-01T04:28:26;97854.19;;;-2.78;77.59
47330;BME280;33060;50.178;7.570;2023-03-01T04:30:55;97863.66;;;-2.77;77.44
47330;BME280;33060;50.178;7.570;2023-03-01T04:33:22;97857.59;;;-2.74;77.41
47330;BME280;33060;50.178;7.570;2023-03-01T04:35:49;97858.44;;;-2.72;76.99
47330;BME280;33060;50.178;7.570;2023-03-01T04:38:18;97855.84;;;-2.71;77.28
47330;BME280;33060;50.178;7.570;2023-03-01T04:40:45;97853.28;;;-2.72;76.83
47330;BME280;33060;50.178;7.570;2023-03-01T04:43:12;97856.75;;;-2.75;77.31
47330;BME280;33060;50.178;7.570;2023-03-01T04:45:41;97849.88;;;-2.74;76.99
47330;BME280;33060;50.178;7.570;2023-03-01T04:48:08;97850.75;;;-2.77;77.02
47330;BME280;33060;50.178;7.570;2023-03-01T04:50:35;97855.03;;;-2.76;77.41
47330;BME280;33060;50.178;7.570;2023-03-01T04:53:02;97861.06;;;-2.77;77.58
47330;BME280;33060;50.178;7.570;2023-03-01T04:55:29;97862.78;;;-2.76;77.41
47330;BME280;33060;50.178;7.570;2023-03-01T04:57:56;97867.94;;;-2.74;77.39
47330;BME280;33060;50.178;7.570;2023-03-01T05:00:23;97876.53;;;-2.78;77.18
47330;BME280;33060;50.178;7.570;2023-03-01T05:02:58;97876.56;;;-2.77;77.51
47330;BME280;33060;50.178;7.570;2023-03-01T05:05:28;97877.44;;;-2.82;77.18
47330;BME280;33060;50.178;7.570;2023-03-01T05:08:00;97877.44;;;-2.87;77.96
47330;BME280;33060;50.178;7.570;2023-03-01T05:10:29;97880.03;;;-2.87;77.58
47330;BME280;33060;50.178;7.570;2023-03-01T05:12:57;97880.03;;;-2.89;78.12
47330;BME280;33060;50.178;7.570;2023-03-01T05:15:28;97874.88;;;-2.90;77.92
47330;BME280;33060;50.178;7.570;2023-03-01T05:17:57;97876.59;;;-2.86;77.72
47330;BME280;33060;50.178;7.570;2023-03-01T05:20:29;97878.34;;;-2.94;78.01
47330;BME280;33060;50.178;7.570;2023-03-01T05:22:59;97871.47;;;-2.95;78.09
47330;BME280;33060;50.178;7.570;2023-03-01T05:25:27;97872.34;;;-2.95;78.40
47330;BME280;33060;50.178;7.570;2023-03-01T05:27:53;97862.84;;;-2.97;78.21
47330;BME280;33060;50.178;7.570;2023-03-01T05:30:20;97870.63;;;-2.99;78.33
47330;BME280;33060;50.178;7.570;2023-03-01T05:32:50;97872.34;;;-3.01;78.26
47330;BME280;33060;50.178;7.570;2023-03-01T05:35:22;97866.34;;;-3.03;78.23
47330;BME280;33060;50.178;7.570;2023-03-01T05:37:49;97863.72;;;-3.04;78.56
47330;BME280;33060;50.178;7.570;2023-03-01T05:40:18;97854.28;;;-3.01;78.18
47330;BME280;33060;50.178;7.570;2023-03-01T05:42:48;97858.59;;;-3.01;78.38
47330;BME280;33060;50.178;7.570;2023-03-01T05:45:16;97855.16;;;-3.02;78.22
47330;BME280;33060;50.178;7.570;2023-03-01T05:47:45;97851.69;;;-3.01;78.44
47330;BME280;33060;50.178;7.570;2023-03-01T05:50:22;97856.00;;;-3.04;78.19
47330;BME280;33060;50.178;7.570;2023-03-01T05:52:52;97852.56;;;-3.05;78.32
47330;BME280;33060;50.178;7.570;2023-03-01T05:55:20;97855.16;;;-3.03;78.34
47330;BME280;33060;50.178;7.570;2023-03-01T05:57:48;97854.28;;;-3.05;78.42
47330;BME280;33060;50.178;7.570;2023-03-01T06:00:18;97856.88;;;-3.02;78.11
47330;BME280;33060;50.178;7.570;2023-03-01T06:02:45;97849.16;;;-3.08;78.22
47330;BME280;33060;50.178;7.570;2023-03-01T06:05:14;97851.69;;;-3.05;78.17
47330;BME280;33060;50.178;7.570;2023-03-01T06:07:41;97856.03;;;-3.07;78.52
47330;BME280;33060;50.178;7.570;2023-03-01T06:10:10;97849.13;;;-3.07;78.78
47330;BME280;33060;50.178;7.570;2023-03-01T06:12:38;97855.19;;;-3.16;78.76
47330;BME280;33060;50.178;7.570;2023-03-01T06:15:05;97855.19;;;-3.11;78.34
47330;BME280;33060;50.178;7.570;2023-03-01T06:17:34;97848.28;;;-3.14;78.77
47330;BME280;33060;50.178;7.570;2023-03-01T06:22:38;97854.31;;;-3.16;78.95
47330;BME280;33060;50.178;7.570;2023-03-01T06:25:06;97859.47;;;-3.10;78.75
47330;BME280;33060;50.178;7.570;2023-03-01T06:27:33;97852.59;;;-3.13;78.56
47330;BME280;33060;50.178;7.570;2023-03-01T06:29:59;97859.47;;;-3.08;78.38
47330;BME280;33060;50.178;7.570;2023-03-01T06:32:26;97856.91;;;-3.10;78.35
47330;BME280;33060;50.178;7.570;2023-03-01T06:34:53;97856.00;;;-3.06;78.47
47330;BME280;33060;50.178;7.570;2023-03-01T06:37:19;97854.31;;;-3.08;78.33
47330;BME280;33060;50.178;7.570;2023-03-01T06:39:46;97850.84;;;-3.04;78.18
47330;BME280;33060;50.178;7.570;2023-03-01T06:42:12;97845.69;;;-3.01;78.01
47330;BME280;33060;50.178;7.570;2023-03-01T06:44:39;97842.22;;;-3.00;77.78
47330;BME280;33060;50.178;7.570;2023-03-01T06:47:05;97851.69;;;-3.01;78.33
47330;BME280;33060;50.178;7.570;2023-03-01T06:49:32;97837.06;;;-2.97;77.76
47330;BME280;33060;50.178;7.570;2023-03-01T06:51:59;97842.22;;;-2.97;78.21
47330;BME280;33060;50.178;7.570;2023-03-01T06:54:25;97844.78;;;-2.94;78.00
47330;BME280;33060;50.178;7.570;2023-03-01T06:56:52;97836.19;;;-2.92;77.54
47330;BME280;33060;50.178;7.570;2023-03-01T06:59:19;97841.34;;;-2.93;77.92
47330;BME280;33060;50.178;7.570;2023-03-01T07:01:45;97841.31;;;-2.87;77.21
47330;BME280;33060;50.178;7.570;2023-03-01T07:04:13;97840.44;;;-2.88;77.30
47330;BME280;33060;50.178;7.570;2023-03-01T07:06:40;97843.88;;;-2.84;77.36
47330;BME280;33060;50.178;7.570;2023-03-01T07:09:06;97842.13;;;-2.79;77.00
47330;BME280;33060;50.178;7.570;2023-03-01T07:11:33;97853.31;;;-2.75;76.83
47330;BME280;33060;50.178;7.570;2023-03-01T07:13:59;97845.59;;;-2.77;76.96
47330;BME280;33060;50.178;7.570;2023-03-01T07:16:26;97846.44;;;-2.76;76.79
47330;BME280;33060;50.178;7.570;2023-03-01T07:18:53;97849.84;;;-2.68;77.45
47330;BME280;33060;50.178;7.570;2023-03-01T07:21:20;97845.47;;;-2.62;76.39
47330;BME280;33060;50.178;7.570;2023-03-01T07:23:47;97839.47;;;-2.59;76.30
47330;BME280;33060;50.178;7.570;2023-03-01T07:26:14;97843.75;;;-2.57;76.31
47330;BME280;33060;50.178;7.570;2023-03-01T07:28:41;97845.47;;;-2.56;76.22
47330;BME280;33060;50.178;7.570;2023-03-01T07:31:08;97843.66;;;-2.44;76.14
47330;BME280;33060;50.178;7.570;2023-03-01T07:33:34;97841.03;;;-2.35;75.49
47330;BME280;33060;50.178;7.570;2023-03-01T07:36:03;97844.41;;;-2.22;75.21
47330;BME280;33060;50.178;7.570;2023-03-01T07:38:30;97833.19;;;-2.23;75.18
47330;BME280;33060;50.178;7.570;2023-03-01T07:41:01;97834.84;;;-2.11;74.45
47330;BME280;33060;50.178;7.570;2023-03-01T07:43:29;97833.72;;;-1.83;73.83
47330;BME280;33060;50.178;7.570;2023-03-01T07:46:00;97829.31;;;-1.70;73.08
47330;BME280;33060;50.178;7.570;2023-03-01T07:48:28;97822.31;;;-1.56;72.13
47330;BME280;33060;50.178;7.570;2023-03-01T07:50:57;97821.88;;;-1.18;71.49
47330;BME280;33060;50.178;7.570;2023-03-01T07:53:23;97818.13;;;-0.91;70.21
47330;BME280;33060;50.178;7.570;2023-03-01T07:56:00;97822.69;;;-0.45;69.45
47330;BME280;33060;50.178;7.570;2023-03-01T07:58:26;97816.44;;;-0.30;68.40
47330;BME280;33060;50.178;7.570;2023-03-01T08:00:53;97817.28;;;-0.30;67.89
47330;BME280;33060;50.178;7.570;2023-03-01T08:03:20;97814.38;;;-0.10;66.66
47330;BME280;33060;50.178;7.570;2023-03-01T08:05:46;97809.88;;;0.03;67.18
47330;BME280;33060;50.178;7.570;2023-03-01T08:08:13;97811.78;;;-0.10;66.55
47330;BME280;33060;50.178;7.570;2023-03-01T08:10:39;97798.63;;;0.03;65.95
47330;BME280;33060;50.178;7.570;2023-03-01T08:13:06;97806.03;;;0.24;66.01
47330;BME280;33060;50.178;7.570;2023-03-01T08:15:33;97815.84;;;0.07;66.52
47330;BME280;33060;50.178;7.570;2023-03-01T08:17:59;97805.56;;;0.02;66.86
47330;BME280;33060;50.178;7.570;2023-03-01T08:20:27;97804.75;;;-0.02;66.75
47330;BME280;33060;50.178;7.570;2023-03-01T08:22:53;97807.09;;;0.14;66.63
47330;BME280;33060;50.178;7.570;2023-03-01T08:25:20;97802.16;;;-0.02;67.09
47330;BME280;33060;50.178;7.570;2023-03-01T08:27:46;97808.06;;;0.07;66.26
47330;BME280;33060;50.178;7.570;2023-03-01T08:30:13;97812.22;;;0.17;66.28
47330;BME280;33060;50.178;7.570;2023-03-01T08:32:40;97814.06;;;0.10;66.28
47330;BME280;33060;50.178;7.570;2023-03-01T08:35:07;97813.22;;;0.59;66.10
47330;BME280;33060;50.178;7.570;2023-03-01T08:37:34;97814.06;;;0.61;64.74
47330;BME280;33060;50.178;7.570;2023-03-01T08:40:00;97812.94;;;0.74;64.60
47330;BME280;33060;50.178;7.570;2023-03-01T08:42:27;97810.25;;;0.79;64.21
47330;BME280;33060;50.178;7.570;2023-03-01T08:44:54;97805.59;;;0.96;63.68
47330;BME280;33060;50.178;7.570;2023-03-01T08:47:21;97813.22;;;1.04;63.39
47330;BME280;33060;50.178;7.570;2023-03-01T08:49:49;97817.22;;;0.75;63.27
47330;BME280;33060;50.178;7.570;2023-03-01T08:52:16;97814.94;;;0.59;63.71
47330;BME280;33060;50.178;7.570;2023-03-01T08:54:43;97807.59;;;1.25;62.67
47330;BME280;33060;50.178;7.570;2023-03-01T08:57:09;97806.81;;;1.20;62.24
47330;BME280;33060;50.178;7.570;2023-03-01T08:59:36;97790.53;;;1.13;62.25
47330;BME280;33060;50.178;7.570;2023-03-01T09:02:04;97793.59;;;1.32;62.20
47330;BME280;33060;50.178;7.570;2023-03-01T09:04:32;97787.63;;;1.27;61.98
47330;BME280;33060;50.178;7.570;2023-03-01T09:06:59;97795.38;;;1.29;61.79
47330;BME280;33060;50.178;7.570;2023-03-01T09:09:26;97795.75;;;1.10;62.89
47330;BME280;33060;50.178;7.570;2023-03-01T09:11:52;97789.94;;;0.99;61.90
47330;BME280;33060;50.178;7.570;2023-03-01T09:14:19;97785.97;;;1.23;62.51
47330;BME280;33060;50.178;7.570;2023-03-01T09:16:46;97791.75;;;1.36;61.79
47330;BME280;33060;50.178;7.570;2023-03-01T09:19:13;97788.31;;;1.35;61.86
47330;BME280;33060;50.178;7.570;2023-03-01T09:21:40;97785.13;;;1.21;61.59
47330;BME280;33060;50.178;7.570;2023-03-01T09:24:14;97783.09;;;1.35;62.02
47330;BME280;33060;50.178;7.570;2023-03-01T09:26:41;97775.88;;;1.50;61.51
47330;BME280;33060;50.178;7.570;2023-03-01T09:29:08;97772.25;;;1.57;61.63
47330;BME280;33060;50.178;7.570;2023-03-01T09:31:36;97769.22;;;1.74;62.27
47330;BME280;33060;50.178;7.570;2023-03-01T09:34:03;97759.22;;;1.58;61.25
47330;BME280;33060;50.178;7.570;2023-03-01T09:36:29;97757.69;;;1.85;61.86
47330;BME280;33060;50.178;7.570;2023-03-01T09:39:00;97759.56;;;2.14;60.47
47330;BME280;33060;50.178;7.570;2023-03-01T09:46:40;97762.97;;;2.18;59.72
47330;BME280;33060;50.178;7.570;2023-03-01T09:49:15;97768.97;;;2.54;59.39
47330;BME280;33060;50.178;7.570;2023-03-01T09:51:58;97772.56;;;2.48;58.22
47330;BME280;33060;50.178;7.570;2023-03-01T09:54:27;97770.97;;;2.43;58.85
47330;BME280;33060;50.178;7.570;2023-03-01T09:57:07;97764.97;;;2.41;59.51
47330;BME280;33060;50.178;7.570;2023-03-01T09:59:56;97765.22;;;2.64;59.04
47330;BME280;33060;50.178;7.570;2023-03-01T10:02:41;97753.78;;;2.68;58.81
47330;BME280;33060;50.178;7.570;2023-03-01T10:05:38;97757.09;;;2.75;58.21
47330;BME280;33060;50.178;7.570;2023-03-01T10:10:38;97759.59;;;2.47;58.50
47330;BME280;33060;50.178;7.570;2023-03-01T10:13:21;97748.13;;;2.54;58.35
47330;BME280;33060;50.178;7.570;2023-03-01T10:15:58;97743.53;;;2.31;58.56
47330;BME280;33060;50.178;7.570;2023-03-01T10:18:30;97742.13;;;2.52;59.37
47330;BME280;33060;50.178;7.570;2023-03-01T10:21:14;97746.78;;;2.39;59.21
47330;BME280;33060;50.178;7.570;2023-03-01T10:23:42;97741.72;;;2.66;58.17
47330;BME280;33060;50.178;7.570;2023-03-01T10:26:48;97736.66;;;2.61;58.46
47330;BME280;33060;50.178;7.570;2023-03-01T10:29:23;97734.38;;;2.80;58.13
47330;BME280;33060;50.178;7.570;2023-03-01T10:31:52;97734.97;;;2.59;57.65
47330;BME280;33060;50.178;7.570;2023-03-01T10:34:30;97727.31;;;2.54;57.98
47330;BME280;33060;50.178;7.570;2023-03-01T10:37:08;97720.50;;;2.48;57.98
47330;BME280;33060;50.178;7.570;2023-03-01T10:39:35;97722.53;;;2.70;57.37
47330;BME280;33060;50.178;7.570;2023-03-01T10:42:04;97717.91;;;2.79;57.97
47330;BME280;33060;50.178;7.570;2023-03-01T10:44:43;97712.22;;;2.95;57.89
47330;BME280;33060;50.178;7.570;2023-03-01T10:47:20;97710.72;;;2.88;58.01
47330;BME280;33060;50.178;7.570;2023-03-01T10:50:02;97712.53;;;2.54;57.49
47330;BME280;33060;50.178;7.570;2023-03-01T10:52:40;97714.81;;;2.65;58.07
47330;BME280;33060;50.178;7.570;2023-03-01T10:57:43;97719.78;;;2.74;58.76
47330;BME280;33060;50.178;7.570;2023-03-01T11:00:24;97712.84;;;3.04;57.16
47330;BME280;33060;50.178;7.570;2023-03-01T11:05:25;97702.13;;;3.14;57.68
47330;BME280;33060;50.178;7.570;2023-03-01T11:07:54;97710.09;;;3.37;56.91
47330;BME280;33060;50.178;7.570;2023-03-01T11:10:26;97698.75;;;3.38;57.50
47330;BME280;33060;50.178;7.570;2023-03-01T11:13:06;97699.47;;;3.43;57.10
47330;BME280;33060;50.178;7.570;2023-03-01T11:15:33;97694.84;;;3.25;56.32
47330;BME280;33060;50.178;7.570;2023-03-01T11:18:00;97683.09;;;3.39;56.79
47330;BME280;33060;50.178;7.570;2023-03-01T11:20:39;97686.72;;;3.34;56.36
47330;BME280;33060;50.178;7.570;2023-03-01T11:23:10;97682.44;;;3.33;56.79
47330;BME280;33060;50.178;7.570;2023-03-01T11:25:43;97679.88;;;3.31;56.28
47330;BME280;33060;50.178;7.570;2023-03-01T11:28:14;97670.84;;;3.42;56.40
47330;BME280;33060;50.178;7.570;2023-03-01T11:30:56;97674.22;;;3.17;56.29
47330;BME280;33060;50.178;7.570;2023-03-01T11:33:39;97664.97;;;3.35;57.11
47330;BME280;33060;50.178;7.570;2023-03-01T11:36:20;97674.41;;;3.39;55.35
47330;BME280;33060;50.178;7.570;2023-03-01T11:38:50;97677.28;;;3.58;56.29
47330;BME280;33060;50.178;7.570;2023-03-01T11:41:20;97669.00;;;3.45;55.54
47330;BME280;33060;50.178;7.570;2023-03-01T11:44:18;97670.00;;;3.41;55.74
47330;BME280;33060;50.178;7.570;2023-03-01T11:46:51;97670.44;;;3.54;55.76
47330;BME280;33060;50.178;7.570;2023-03-01T11:52:38;97667.50;;;3.91;54.53
47330;BME280;33060;50.178;7.570;2023-03-01T12:06:09;97672.25;;;4.05;53.30
47330;BME280;33060;50.178;7.570;2023-03-01T12:08:47;97649.19;;;3.92;52.56
47330;BME280;33060;50.178;7.570;2023-03-01T12:21:40;97635.50;;;4.34;53.53
47330;BME280;33060;50.178;7.570;2023-03-01T12:24:23;97630.91;;;4.17;52.25
47330;BME280;33060;50.178;7.570;2023-03-01T12:27:17;97622.50;;;4.09;52.26
47330;BME280;33060;50.178;7.570;2023-03-01T12:33:12;97623.03;;;4.19;52.11
47330;BME280;33060;50.178;7.570;2023-03-01T12:38:42;97598.66;;;4.18;52.10
47330;BME280;33060;50.178;7.570;2023-03-01T12:49:41;97583.06;;;4.40;51.63
47330;BME280;33060;50.178;7.570;2023-03-01T12:52:15;97572.09;;;4.31;51.28
47330;BME280;33060;50.178;7.570;2023-03-01T12:54:43;97566.72;;;4.35;51.27
47330;BME280;33060;50.178;7.570;2023-03-01T13:02:54;97558.13;;;4.55;51.04
47330;BME280;33060;50.178;7.570;2023-03-01T13:08:31;97546.47;;;4.86;50.49
47330;BME280;33060;50.178;7.570;2023-03-01T13:11:03;97544.78;;;4.85;49.20
47330;BME280;33060;50.178;7.570;2023-03-01T13:13:31;97542.00;;;4.89;48.60
47330;BME280;33060;50.178;7.570;2023-03-01T13:19:18;97535.72;;;4.93;49.15
47330;BME280;33060;50.178;7.570;2023-03-01T13:21:46;97535.16;;;4.87;49.02
47330;BME280;33060;50.178;7.570;2023-03-01T13:24:40;97538.72;;;5.06;49.15
47330;BME280;33060;50.178;7.570;2023-03-01T13:29:47;97533.59;;;5.03;48.45
47330;BME280;33060;50.178;7.570;2023-03-01T13:32:36;97546.25;;;5.14;48.01
47330;BME280;33060;50.178;7.570;2023-03-01T13:37:37;97533.00;;;4.96;47.92
47330;BME280;33060;50.178;7.570;2023-03-01T13:42:54;97526.44;;;5.08;46.61
47330;BME280;33060;50.178;7.570;2023-03-01T13:45:42;97519.53;;;5.27;46.36
47330;BME280;33060;50.178;7.570;2023-03-01T13:48:29;97513.56;;;5.24;45.88
47330;BME280;33060;50.178;7.570;2023-03-01T13:51:02;97514.44;;;5.24;46.56
47330;BME280;33060;50.178;7.570;2023-03-01T13:53:33;97511.81;;;5.45;46.28
47330;BME280;33060;50.178;7.570;2023-03-01T13:56:08;97508.66;;;5.36;47.18
47330;BME280;33060;50.178;7.570;2023-03-01T13:59:05;97514.59;;;5.20;45.47
47330;BME280;33060;50.178;7.570;2023-03-01T14:01:35;97513.31;;;5.30;45.69
47330;BME280;33060;50.178;7.570;2023-03-01T14:04:03;97504.44;;;5.34;45.48
47330;BME280;33060;50.178;7.570;2023-03-01T14:06:44;97513.13;;;5.34;45.13
47330;BME280;33060;50.178;7.570;2023-03-01T14:09:24;97508.50;;;5.41;44.66
47330;BME280;33060;50.178;7.570;2023-03-01T14:14:29;97502.63;;;5.56;46.03
47330;BME280;33060;50.178;7.570;2023-03-01T14:19:28;97506.59;;;5.65;43.74
47330;BME280;33060;50.178;7.570;2023-03-01T14:22:24;97502.28;;;5.44;43.41
47330;BME280;33060;50.178;7.570;2023-03-01T14:24:59;97504.72;;;5.48;43.44
47330;BME280;33060;50.178;7.570;2023-03-01T14:27:31;97504.09;;;5.62;44.22
47330;BME280;33060;50.178;7.570;2023-03-01T14:30:02;97494.81;;;5.55;43.52
47330;BME280;33060;50.178;7.570;2023-03-01T14:32:31;97487.06;;;5.72;43.75
47330;BME280;33060;50.178;7.570;2023-03-01T14:34:59;97497.44;;;5.55;43.26
47330;BME280;33060;50.178;7.570;2023-03-01T14:37:29;97483.16;;;5.62;43.41
47330;BME280;33060;50.178;7.570;2023-03-01T14:39:59;97491.28;;;5.56;43.67
47330;BME280;33060;50.178;7.570;2023-03-01T14:42:30;97491.56;;;5.50;43.70
47330;BME280;33060;50.178;7.570;2023-03-01T14:45:01;97493.41;;;5.48;43.43
47330;BME280;33060;50.178;7.570;2023-03-01T14:47:31;97486.19;;;5.53;43.43
47330;BME280;33060;50.178;7.570;2023-03-01T14:50:23;97481.47;;;5.61;43.65
47330;BME280;33060;50.178;7.570;2023-03-01T14:52:51;97489.50;;;5.77;43.88
47330;BME280;33060;50.178;7.570;2023-03-01T14:55:21;97479.81;;;5.79;43.36